Terminal Aerodrome Forecast
Issued by NWS

Home | Current Version | Previous Version | Text Only | Print | Product List | Glossary On
Versions: 1 2 3 4 5 6 7 8 9 10 11 12 13 14 15 16 17 18 19 20 21
562
FTUS46 KSTO 271351 AAA
TAFRDD
TAF AMD
KRDD 271351Z 2714/2812 VRB05KT P6SM FEW009 BKN035
      TEMPO 2714/2717 BKN009
     FM271900 30005KT P6SM BKN250=

USA.gov is the U.S. government's official web portal to all federal, state and local government web resources and services.